sensor_id;sensor_type;location;lat;lon;timestamp;P1;durP1;ratioP1;P2;durP2;ratioP2
65871;SDS011;52653;50.080;21.992;2024-02-26T00:00:58;31.30;;;25.30;;
65871;SDS011;52653;50.080;21.992;2024-02-26T00:03:51;30.00;;;23.90;;
65871;SDS011;52653;50.080;21.992;2024-02-26T00:06:24;32.30;;;24.40;;
65871;SDS011;52653;50.080;21.992;2024-02-26T00:08:56;31.20;;;24.00;;
65871;SDS011;52653;50.080;21.992;2024-02-26T00:11:30;28.40;;;23.40;;
65871;SDS011;52653;50.080;21.992;2024-02-26T00:14:02;31.90;;;23.90;;
65871;SDS011;52653;50.080;21.992;2024-02-26T00:16:35;28.90;;;23.10;;
65871;SDS011;52653;50.080;21.992;2024-02-26T00:19:10;28.20;;;23.60;;
65871;SDS011;52653;50.080;21.992;2024-02-26T00:21:42;29.00;;;22.40;;
65871;SDS011;52653;50.080;21.992;2024-02-26T00:24:14;27.20;;;22.60;;
65871;SDS011;52653;50.080;21.992;2024-02-26T00:26:47;28.40;;;23.10;;
65871;SDS011;52653;50.080;21.992;2024-02-26T00:29:23;29.50;;;22.80;;
65871;SDS011;52653;50.080;21.992;2024-02-26T00:31:56;28.70;;;22.40;;
65871;SDS011;52653;50.080;21.992;2024-02-26T00:34:28;29.50;;;23.70;;
65871;SDS011;52653;50.080;21.992;2024-02-26T00:37:01;29.10;;;23.00;;
65871;SDS011;52653;50.080;21.992;2024-02-26T00:39:33;29.30;;;23.30;;
65871;SDS011;52653;50.080;21.992;2024-02-26T00:42:06;30.70;;;25.30;;
65871;SDS011;52653;50.080;21.992;2024-02-26T00:44:38;29.00;;;24.60;;
65871;SDS011;52653;50.080;21.992;2024-02-26T00:47:10;32.00;;;25.30;;
65871;SDS011;52653;50.080;21.992;2024-02-26T00:49:43;32.20;;;25.10;;
65871;SDS011;52653;50.080;21.992;2024-02-26T00:52:15;33.00;;;24.30;;
65871;SDS011;52653;50.080;21.992;2024-02-26T00:54:47;30.60;;;24.60;;
65871;SDS011;52653;50.080;21.992;2024-02-26T00:57:20;31.10;;;24.90;;
65871;SDS011;52653;50.080;21.992;2024-02-26T00:59:52;30.30;;;25.00;;
65871;SDS011;52653;50.080;21.992;2024-02-26T01:02:25;31.50;;;25.20;;
65871;SDS011;52653;50.080;21.992;2024-02-26T01:04:57;31.70;;;25.20;;
65871;SDS011;52653;50.080;21.992;2024-02-26T01:07:30;36.10;;;25.30;;
65871;SDS011;52653;50.080;21.992;2024-02-26T01:10:06;30.80;;;24.80;;
65871;SDS011;52653;50.080;21.992;2024-02-26T01:12:39;30.40;;;24.80;;
65871;SDS011;52653;50.080;21.992;2024-02-26T01:15:11;32.40;;;25.30;;
65871;SDS011;52653;50.080;21.992;2024-02-26T01:17:44;32.70;;;25.30;;
65871;SDS011;52653;50.080;21.992;2024-02-26T01:20:16;32.30;;;24.80;;
65871;SDS011;52653;50.080;21.992;2024-02-26T01:22:48;31.10;;;24.60;;
65871;SDS011;52653;50.080;21.992;2024-02-26T01:25:21;32.80;;;25.40;;
65871;SDS011;52653;50.080;21.992;2024-02-26T01:27:53;33.50;;;25.20;;
65871;SDS011;52653;50.080;21.992;2024-02-26T01:30:25;34.20;;;24.90;;
65871;SDS011;52653;50.080;21.992;2024-02-26T01:32:57;30.80;;;24.20;;
65871;SDS011;52653;50.080;21.992;2024-02-26T01:35:30;31.30;;;24.10;;
65871;SDS011;52653;50.080;21.992;2024-02-26T01:38:02;29.10;;;24.20;;
65871;SDS011;52653;50.080;21.992;2024-02-26T01:40:35;28.60;;;23.30;;
65871;SDS011;52653;50.080;21.992;2024-02-26T01:43:07;29.30;;;22.40;;
65871;SDS011;52653;50.080;21.992;2024-02-26T01:45:39;30.60;;;23.50;;
65871;SDS011;52653;50.080;21.992;2024-02-26T01:48:12;29.40;;;21.90;;
65871;SDS011;52653;50.080;21.992;2024-02-26T01:50:44;28.90;;;22.40;;
65871;SDS011;52653;50.080;21.992;2024-02-26T01:53:16;31.20;;;24.10;;
65871;SDS011;52653;50.080;21.992;2024-02-26T01:55:50;28.70;;;22.40;;
65871;SDS011;52653;50.080;21.992;2024-02-26T01:58:22;29.30;;;22.70;;
65871;SDS011;52653;50.080;21.992;2024-02-26T02:00:54;32.30;;;24.10;;
65871;SDS011;52653;50.080;21.992;2024-02-26T02:03:27;30.40;;;24.30;;
65871;SDS011;52653;50.080;21.992;2024-02-26T02:06:01;29.60;;;23.00;;
65871;SDS011;52653;50.080;21.992;2024-02-26T02:08:34;31.50;;;23.40;;
65871;SDS011;52653;50.080;21.992;2024-02-26T02:11:08;29.80;;;22.90;;
65871;SDS011;52653;50.080;21.992;2024-02-26T02:13:41;27.30;;;21.80;;
65871;SDS011;52653;50.080;21.992;2024-02-26T02:16:14;31.80;;;23.50;;
65871;SDS011;52653;50.080;21.992;2024-02-26T02:18:46;27.50;;;22.30;;
65871;SDS011;52653;50.080;21.992;2024-02-26T02:21:18;23.70;;;19.80;;
65871;SDS011;52653;50.080;21.992;2024-02-26T02:23:51;24.90;;;19.10;;
65871;SDS011;52653;50.080;21.992;2024-02-26T02:26:23;25.20;;;19.80;;
65871;SDS011;52653;50.080;21.992;2024-02-26T02:28:55;24.50;;;19.40;;
65871;SDS011;52653;50.080;21.992;2024-02-26T02:31:29;25.20;;;19.70;;
65871;SDS011;52653;50.080;21.992;2024-02-26T02:34:01;24.90;;;19.80;;
65871;SDS011;52653;50.080;21.992;2024-02-26T02:36:34;25.60;;;20.20;;
65871;SDS011;52653;50.080;21.992;2024-02-26T02:39:18;23.30;;;18.60;;
65871;SDS011;52653;50.080;21.992;2024-02-26T02:41:50;21.10;;;17.60;;
65871;SDS011;52653;50.080;21.992;2024-02-26T02:44:23;20.80;;;17.10;;
65871;SDS011;52653;50.080;21.992;2024-02-26T02:46:55;23.10;;;17.50;;
65871;SDS011;52653;50.080;21.992;2024-02-26T02:49:27;21.00;;;17.40;;
65871;SDS011;52653;50.080;21.992;2024-02-26T02:52:00;19.10;;;16.10;;
65871;SDS011;52653;50.080;21.992;2024-02-26T02:54:32;21.90;;;15.80;;
65871;SDS011;52653;50.080;21.992;2024-02-26T02:57:05;22.30;;;17.30;;
65871;SDS011;52653;50.080;21.992;2024-02-26T02:59:37;20.80;;;16.40;;
65871;SDS011;52653;50.080;21.992;2024-02-26T03:02:09;21.00;;;16.80;;
65871;SDS011;52653;50.080;21.992;2024-02-26T03:04:42;23.70;;;18.10;;
65871;SDS011;52653;50.080;21.992;2024-02-26T03:07:14;28.60;;;21.20;;
65871;SDS011;52653;50.080;21.992;2024-02-26T03:09:46;29.50;;;23.90;;
65871;SDS011;52653;50.080;21.992;2024-02-26T03:12:19;32.90;;;24.30;;
65871;SDS011;52653;50.080;21.992;2024-02-26T03:14:51;33.00;;;24.90;;
65871;SDS011;52653;50.080;21.992;2024-02-26T03:17:24;30.40;;;23.70;;
65871;SDS011;52653;50.080;21.992;2024-02-26T03:19:57;32.40;;;23.80;;
65871;SDS011;52653;50.080;21.992;2024-02-26T03:22:29;30.40;;;23.80;;
65871;SDS011;52653;50.080;21.992;2024-02-26T03:25:02;30.40;;;24.10;;
65871;SDS011;52653;50.080;21.992;2024-02-26T03:27:35;30.20;;;22.40;;
65871;SDS011;52653;50.080;21.992;2024-02-26T03:30:08;30.00;;;23.10;;
65871;SDS011;52653;50.080;21.992;2024-02-26T03:32:41;28.50;;;22.60;;
65871;SDS011;52653;50.080;21.992;2024-02-26T03:35:13;29.20;;;23.40;;
65871;SDS011;52653;50.080;21.992;2024-02-26T03:37:47;30.10;;;23.40;;
65871;SDS011;52653;50.080;21.992;2024-02-26T03:40:21;27.60;;;23.10;;
65871;SDS011;52653;50.080;21.992;2024-02-26T03:42:53;32.90;;;24.20;;
65871;SDS011;52653;50.080;21.992;2024-02-26T03:45:26;31.20;;;25.40;;
65871;SDS011;52653;50.080;21.992;2024-02-26T03:47:58;36.30;;;28.60;;
65871;SDS011;52653;50.080;21.992;2024-02-26T03:50:31;36.60;;;28.70;;
65871;SDS011;52653;50.080;21.992;2024-02-26T03:53:04;33.90;;;27.80;;
65871;SDS011;52653;50.080;21.992;2024-02-26T03:55:42;30.20;;;25.20;;
65871;SDS011;52653;50.080;21.992;2024-02-26T03:58:15;34.30;;;26.30;;
65871;SDS011;52653;50.080;21.992;2024-02-26T04:00:47;32.10;;;24.80;;
65871;SDS011;52653;50.080;21.992;2024-02-26T04:03:20;31.50;;;24.70;;
65871;SDS011;52653;50.080;21.992;2024-02-26T04:05:52;31.40;;;24.20;;
65871;SDS011;52653;50.080;21.992;2024-02-26T04:08:24;29.10;;;23.60;;
65871;SDS011;52653;50.080;21.992;2024-02-26T04:10:57;31.00;;;24.20;;
65871;SDS011;52653;50.080;21.992;2024-02-26T04:13:29;30.80;;;24.40;;
65871;SDS011;52653;50.080;21.992;2024-02-26T04:16:02;26.30;;;20.10;;
65871;SDS011;52653;50.080;21.992;2024-02-26T04:18:35;20.10;;;16.00;;
65871;SDS011;52653;50.080;21.992;2024-02-26T04:21:07;18.40;;;14.30;;
65871;SDS011;52653;50.080;21.992;2024-02-26T04:23:40;16.70;;;13.20;;
65871;SDS011;52653;50.080;21.992;2024-02-26T04:26:12;15.90;;;12.70;;
65871;SDS011;52653;50.080;21.992;2024-02-26T04:28:45;14.40;;;11.50;;
65871;SDS011;52653;50.080;21.992;2024-02-26T04:31:17;13.20;;;10.60;;
65871;SDS011;52653;50.080;21.992;2024-02-26T04:33:49;11.40;;;8.90;;
65871;SDS011;52653;50.080;21.992;2024-02-26T04:36:22;11.20;;;8.00;;
65871;SDS011;52653;50.080;21.992;2024-02-26T04:38:55;10.60;;;8.50;;
65871;SDS011;52653;50.080;21.992;2024-02-26T04:41:27;10.90;;;8.60;;
65871;SDS011;52653;50.080;21.992;2024-02-26T04:44:00;12.70;;;9.10;;
65871;SDS011;52653;50.080;21.992;2024-02-26T04:46:32;10.20;;;8.50;;
65871;SDS011;52653;50.080;21.992;2024-02-26T04:49:05;11.30;;;8.30;;
65871;SDS011;52653;50.080;21.992;2024-02-26T04:51:37;11.00;;;8.10;;
65871;SDS011;52653;50.080;21.992;2024-02-26T04:54:12;11.20;;;8.30;;
65871;SDS011;52653;50.080;21.992;2024-02-26T04:56:45;11.20;;;8.20;;
65871;SDS011;52653;50.080;21.992;2024-02-26T04:59:18;11.20;;;8.60;;
65871;SDS011;52653;50.080;21.992;2024-02-26T05:01:50;10.80;;;8.10;;
65871;SDS011;52653;50.080;21.992;2024-02-26T05:04:23;9.90;;;7.50;;
65871;SDS011;52653;50.080;21.992;2024-02-26T05:06:55;9.70;;;8.00;;
65871;SDS011;52653;50.080;21.992;2024-02-26T05:09:27;10.80;;;7.50;;
65871;SDS011;52653;50.080;21.992;2024-02-26T05:12:00;9.70;;;7.60;;
65871;SDS011;52653;50.080;21.992;2024-02-26T05:14:33;10.50;;;7.10;;
65871;SDS011;52653;50.080;21.992;2024-02-26T05:17:08;9.60;;;7.20;;
65871;SDS011;52653;50.080;21.992;2024-02-26T05:19:40;10.20;;;7.10;;
65871;SDS011;52653;50.080;21.992;2024-02-26T05:22:12;9.60;;;6.70;;
65871;SDS011;52653;50.080;21.992;2024-02-26T05:24:46;9.80;;;7.00;;
65871;SDS011;52653;50.080;21.992;2024-02-26T05:27:18;9.30;;;6.60;;
65871;SDS011;52653;50.080;21.992;2024-02-26T05:29:50;8.90;;;6.90;;
65871;SDS011;52653;50.080;21.992;2024-02-26T05:32:23;8.60;;;6.20;;
65871;SDS011;52653;50.080;21.992;2024-02-26T05:34:55;8.00;;;6.10;;
65871;SDS011;52653;50.080;21.992;2024-02-26T05:37:27;8.70;;;6.10;;
65871;SDS011;52653;50.080;21.992;2024-02-26T05:40:00;8.50;;;6.10;;
65871;SDS011;52653;50.080;21.992;2024-02-26T05:42:34;8.20;;;5.60;;
65871;SDS011;52653;50.080;21.992;2024-02-26T05:45:07;8.00;;;5.50;;
65871;SDS011;52653;50.080;21.992;2024-02-26T05:47:40;8.40;;;6.20;;
65871;SDS011;52653;50.080;21.992;2024-02-26T05:50:13;7.80;;;5.30;;
65871;SDS011;52653;50.080;21.992;2024-02-26T05:52:45;7.90;;;5.40;;
65871;SDS011;52653;50.080;21.992;2024-02-26T05:55:17;7.80;;;5.00;;
65871;SDS011;52653;50.080;21.992;2024-02-26T05:57:49;7.30;;;5.20;;
65871;SDS011;52653;50.080;21.992;2024-02-26T06:00:22;8.30;;;5.10;;
65871;SDS011;52653;50.080;21.992;2024-02-26T06:02:56;8.30;;;5.40;;
65871;SDS011;52653;50.080;21.992;2024-02-26T06:05:28;7.40;;;5.10;;
65871;SDS011;52653;50.080;21.992;2024-02-26T06:08:01;6.50;;;4.80;;
65871;SDS011;52653;50.080;21.992;2024-02-26T06:10:34;7.50;;;4.80;;
65871;SDS011;52653;50.080;21.992;2024-02-26T06:13:08;7.80;;;4.90;;
65871;SDS011;52653;50.080;21.992;2024-02-26T06:15:41;7.30;;;5.30;;
65871;SDS011;52653;50.080;21.992;2024-02-26T06:18:14;6.90;;;4.80;;
65871;SDS011;52653;50.080;21.992;2024-02-26T06:20:46;7.10;;;4.70;;
65871;SDS011;52653;50.080;21.992;2024-02-26T06:23:18;6.80;;;4.90;;
65871;SDS011;52653;50.080;21.992;2024-02-26T06:25:51;7.30;;;4.90;;
65871;SDS011;52653;50.080;21.992;2024-02-26T06:28:23;6.80;;;4.90;;
65871;SDS011;52653;50.080;21.992;2024-02-26T06:30:55;6.70;;;4.70;;
65871;SDS011;52653;50.080;21.992;2024-02-26T06:33:28;8.20;;;5.30;;
65871;SDS011;52653;50.080;21.992;2024-02-26T06:36:00;8.50;;;5.70;;
65871;SDS011;52653;50.080;21.992;2024-02-26T06:38:34;9.80;;;5.70;;
65871;SDS011;52653;50.080;21.992;2024-02-26T06:41:06;7.60;;;5.60;;
65871;SDS011;52653;50.080;21.992;2024-02-26T06:43:39;10.30;;;6.70;;
65871;SDS011;52653;50.080;21.992;2024-02-26T06:46:11;9.00;;;6.10;;
65871;SDS011;52653;50.080;21.992;2024-02-26T06:48:44;9.40;;;6.40;;
65871;SDS011;52653;50.080;21.992;2024-02-26T06:51:18;7.80;;;5.90;;
65871;SDS011;52653;50.080;21.992;2024-02-26T06:53:52;8.90;;;6.20;;
65871;SDS011;52653;50.080;21.992;2024-02-26T06:56:25;8.90;;;6.60;;
65871;SDS011;52653;50.080;21.992;2024-02-26T06:58:57;9.40;;;6.50;;
65871;SDS011;52653;50.080;21.992;2024-02-26T07:01:30;9.20;;;6.50;;
65871;SDS011;52653;50.080;21.992;2024-02-26T07:04:02;8.50;;;6.00;;
65871;SDS011;52653;50.080;21.992;2024-02-26T07:06:34;9.40;;;6.70;;
65871;SDS011;52653;50.080;21.992;2024-02-26T07:09:07;8.60;;;6.40;;
65871;SDS011;52653;50.080;21.992;2024-02-26T07:11:41;10.00;;;6.50;;
65871;SDS011;52653;50.080;21.992;2024-02-26T07:14:14;9.90;;;6.90;;
65871;SDS011;52653;50.080;21.992;2024-02-26T07:16:46;8.50;;;6.70;;
65871;SDS011;52653;50.080;21.992;2024-02-26T07:19:18;10.70;;;7.70;;
65871;SDS011;52653;50.080;21.992;2024-02-26T07:21:52;9.20;;;7.20;;
65871;SDS011;52653;50.080;21.992;2024-02-26T07:24:24;12.40;;;9.00;;
65871;SDS011;52653;50.080;21.992;2024-02-26T07:26:57;9.60;;;7.50;;
65871;SDS011;52653;50.080;21.992;2024-02-26T07:29:29;11.90;;;8.40;;
65871;SDS011;52653;50.080;21.992;2024-02-26T07:32:04;11.30;;;8.70;;
65871;SDS011;52653;50.080;21.992;2024-02-26T07:34:37;12.00;;;8.70;;
65871;SDS011;52653;50.080;21.992;2024-02-26T07:37:11;12.90;;;8.90;;
65871;SDS011;52653;50.080;21.992;2024-02-26T07:39:43;12.20;;;9.30;;
65871;SDS011;52653;50.080;21.992;2024-02-26T07:42:16;11.60;;;9.20;;
65871;SDS011;52653;50.080;21.992;2024-02-26T07:44:48;13.70;;;9.80;;
65871;SDS011;52653;50.080;21.992;2024-02-26T07:47:21;14.00;;;10.90;;
65871;SDS011;52653;50.080;21.992;2024-02-26T07:49:54;14.80;;;11.10;;
65871;SDS011;52653;50.080;21.992;2024-02-26T07:52:26;15.50;;;12.00;;
65871;SDS011;52653;50.080;21.992;2024-02-26T07:54:59;14.30;;;11.70;;
65871;SDS011;52653;50.080;21.992;2024-02-26T07:57:36;18.00;;;13.50;;
65871;SDS011;52653;50.080;21.992;2024-02-26T08:00:15;17.50;;;13.70;;
65871;SDS011;52653;50.080;21.992;2024-02-26T08:02:48;17.70;;;14.60;;
65871;SDS011;52653;50.080;21.992;2024-02-26T08:05:20;17.20;;;14.10;;
65871;SDS011;52653;50.080;21.992;2024-02-26T08:07:52;21.40;;;16.90;;
65871;SDS011;52653;50.080;21.992;2024-02-26T08:10:27;22.80;;;17.90;;
65871;SDS011;52653;50.080;21.992;2024-02-26T08:13:01;24.80;;;20.10;;
65871;SDS011;52653;50.080;21.992;2024-02-26T08:15:35;24.00;;;19.70;;
65871;SDS011;52653;50.080;21.992;2024-02-26T08:18:07;25.50;;;20.10;;
65871;SDS011;52653;50.080;21.992;2024-02-26T08:20:40;29.30;;;20.90;;
65871;SDS011;52653;50.080;21.992;2024-02-26T08:23:12;27.90;;;21.20;;
65871;SDS011;52653;50.080;21.992;2024-02-26T08:25:46;25.40;;;21.40;;
65871;SDS011;52653;50.080;21.992;2024-02-26T08:28:18;29.40;;;22.00;;
65871;SDS011;52653;50.080;21.992;2024-02-26T08:30:51;29.10;;;23.10;;
65871;SDS011;52653;50.080;21.992;2024-02-26T08:33:23;28.80;;;22.60;;
65871;SDS011;52653;50.080;21.992;2024-02-26T08:35:55;29.30;;;23.50;;
65871;SDS011;52653;50.080;21.992;2024-02-26T08:38:29;29.70;;;24.40;;
65871;SDS011;52653;50.080;21.992;2024-02-26T08:41:12;27.60;;;22.40;;
65871;SDS011;52653;50.080;21.992;2024-02-26T08:43:44;28.10;;;23.30;;
65871;SDS011;52653;50.080;21.992;2024-02-26T08:46:16;27.80;;;22.00;;
65871;SDS011;52653;50.080;21.992;2024-02-26T08:48:49;23.30;;;19.90;;
65871;SDS011;52653;50.080;21.992;2024-02-26T08:51:21;23.60;;;19.30;;
65871;SDS011;52653;50.080;21.992;2024-02-26T08:53:54;24.00;;;18.10;;
65871;SDS011;52653;50.080;21.992;2024-02-26T08:56:26;23.60;;;18.50;;
65871;SDS011;52653;50.080;21.992;2024-02-26T08:58:58;21.10;;;17.20;;
65871;SDS011;52653;50.080;21.992;2024-02-26T09:01:33;21.10;;;16.90;;
65871;SDS011;52653;50.080;21.992;2024-02-26T09:04:05;15.90;;;12.10;;
65871;SDS011;52653;50.080;21.992;2024-02-26T09:06:38;12.90;;;10.60;;
65871;SDS011;52653;50.080;21.992;2024-02-26T09:09:10;15.40;;;10.10;;
65871;SDS011;52653;50.080;21.992;2024-02-26T09:11:44;14.50;;;9.90;;
65871;SDS011;52653;50.080;21.992;2024-02-26T09:14:17;13.90;;;9.60;;
65871;SDS011;52653;50.080;21.992;2024-02-26T09:16:49;15.20;;;10.20;;
65871;SDS011;52653;50.080;21.992;2024-02-26T09:19:22;14.80;;;9.50;;
65871;SDS011;52653;50.080;21.992;2024-02-26T09:21:57;13.10;;;9.50;;
65871;SDS011;52653;50.080;21.992;2024-02-26T09:24:29;14.10;;;10.10;;
65871;SDS011;52653;50.080;21.992;2024-02-26T09:27:01;12.30;;;9.90;;
65871;SDS011;52653;50.080;21.992;2024-02-26T09:29:36;12.30;;;8.90;;
65871;SDS011;52653;50.080;21.992;2024-02-26T09:32:08;13.60;;;9.60;;
65871;SDS011;52653;50.080;21.992;2024-02-26T09:34:41;12.60;;;9.70;;
65871;SDS011;52653;50.080;21.992;2024-02-26T09:37:13;13.40;;;9.30;;
65871;SDS011;52653;50.080;21.992;2024-02-26T09:39:50;12.00;;;9.40;;
65871;SDS011;52653;50.080;21.992;2024-02-26T09:42:23;10.60;;;8.50;;
65871;SDS011;52653;50.080;21.992;2024-02-26T09:44:59;13.90;;;8.00;;
65871;SDS011;52653;50.080;21.992;2024-02-26T09:47:38;10.70;;;7.90;;
65871;SDS011;52653;50.080;21.992;2024-02-26T09:50:10;11.40;;;8.10;;
65871;SDS011;52653;50.080;21.992;2024-02-26T09:52:47;11.70;;;7.40;;
65871;SDS011;52653;50.080;21.992;2024-02-26T09:55:29;11.80;;;7.50;;
65871;SDS011;52653;50.080;21.992;2024-02-26T09:58:01;10.90;;;7.30;;
65871;SDS011;52653;50.080;21.992;2024-02-26T10:00:37;9.40;;;7.30;;
65871;SDS011;52653;50.080;21.992;2024-02-26T10:03:11;12.70;;;7.70;;
65871;SDS011;52653;50.080;21.992;2024-02-26T10:05:46;12.30;;;7.50;;
65871;SDS011;52653;50.080;21.992;2024-02-26T10:08:23;11.90;;;7.90;;
65871;SDS011;52653;50.080;21.992;2024-02-26T10:10:57;10.50;;;7.30;;
65871;SDS011;52653;50.080;21.992;2024-02-26T10:13:29;11.10;;;7.50;;
65871;SDS011;52653;50.080;21.992;2024-02-26T10:16:02;12.10;;;7.30;;
65871;SDS011;52653;50.080;21.992;2024-02-26T10:18:48;10.90;;;7.20;;
65871;SDS011;52653;50.080;21.992;2024-02-26T10:21:28;9.10;;;7.10;;
65871;SDS011;52653;50.080;21.992;2024-02-26T10:24:01;10.70;;;6.70;;
65871;SDS011;52653;50.080;21.992;2024-02-26T10:26:34;10.10;;;7.10;;
65871;SDS011;52653;50.080;21.992;2024-02-26T10:29:09;12.30;;;6.70;;
65871;SDS011;52653;50.080;21.992;2024-02-26T10:31:43;9.70;;;6.30;;
65871;SDS011;52653;50.080;21.992;2024-02-26T10:34:15;10.00;;;6.80;;
65871;SDS011;52653;50.080;21.992;2024-02-26T10:36:48;11.40;;;6.60;;
65871;SDS011;52653;50.080;21.992;2024-02-26T10:39:23;10.10;;;6.60;;
65871;SDS011;52653;50.080;21.992;2024-02-26T10:41:55;8.80;;;6.40;;
65871;SDS011;52653;50.080;21.992;2024-02-26T10:44:29;11.40;;;7.10;;
65871;SDS011;52653;50.080;21.992;2024-02-26T10:47:01;10.60;;;5.90;;
65871;SDS011;52653;50.080;21.992;2024-02-26T10:49:33;8.50;;;6.30;;
65871;SDS011;52653;50.080;21.992;2024-02-26T10:52:06;10.00;;;6.10;;
65871;SDS011;52653;50.080;21.992;2024-02-26T10:54:39;10.40;;;6.10;;
65871;SDS011;52653;50.080;21.992;2024-02-26T10:57:17;9.90;;;6.40;;
65871;SDS011;52653;50.080;21.992;2024-02-26T10:59:50;10.80;;;6.60;;
65871;SDS011;52653;50.080;21.992;2024-02-26T11:02:24;10.30;;;5.80;;
65871;SDS011;52653;50.080;21.992;2024-02-26T11:04:57;11.40;;;6.40;;
65871;SDS011;52653;50.080;21.992;2024-02-26T11:07:30;11.60;;;6.10;;
65871;SDS011;52653;50.080;21.992;2024-02-26T11:10:05;12.00;;;6.60;;
65871;SDS011;52653;50.080;21.992;2024-02-26T11:12:41;11.00;;;6.10;;
65871;SDS011;52653;50.080;21.992;2024-02-26T11:15:13;9.50;;;6.10;;
65871;SDS011;52653;50.080;21.992;2024-02-26T11:17:47;8.80;;;6.30;;
65871;SDS011;52653;50.080;21.992;2024-02-26T11:20:20;13.80;;;5.80;;
65871;SDS011;52653;50.080;21.992;2024-02-26T11:22:53;10.30;;;6.20;;
65871;SDS011;52653;50.080;21.992;2024-02-26T11:25:26;8.50;;;5.30;;
65871;SDS011;52653;50.080;21.992;2024-02-26T11:27:58;9.70;;;5.40;;
65871;SDS011;52653;50.080;21.992;2024-02-26T11:30:35;8.70;;;5.50;;
65871;SDS011;52653;50.080;21.992;2024-02-26T11:33:12;10.00;;;5.30;;
65871;SDS011;52653;50.080;21.992;2024-02-26T11:35:46;9.40;;;5.30;;
65871;SDS011;52653;50.080;21.992;2024-02-26T11:38:19;8.90;;;5.30;;
65871;SDS011;52653;50.080;21.992;2024-02-26T11:40:54;9.90;;;5.70;;
65871;SDS011;52653;50.080;21.992;2024-02-26T11:46:27;8.40;;;5.20;;
65871;SDS011;52653;50.080;21.992;2024-02-26T11:49:01;11.20;;;5.50;;
65871;SDS011;52653;50.080;21.992;2024-02-26T11:51:34;9.30;;;5.30;;
65871;SDS011;52653;50.080;21.992;2024-02-26T11:54:07;11.10;;;5.50;;
65871;SDS011;52653;50.080;21.992;2024-02-26T11:56:41;9.30;;;5.40;;
65871;SDS011;52653;50.080;21.992;2024-02-26T11:59:19;10.40;;;5.60;;
65871;SDS011;52653;50.080;21.992;2024-02-26T12:02:11;7.40;;;4.70;;
65871;SDS011;52653;50.080;21.992;2024-02-26T12:05:04;8.60;;;4.90;;
65871;SDS011;52653;50.080;21.992;2024-02-26T12:07:41;10.40;;;5.20;;
65871;SDS011;52653;50.080;21.992;2024-02-26T12:10:17;8.30;;;4.90;;
65871;SDS011;52653;50.080;21.992;2024-02-26T12:13:02;8.10;;;4.90;;
65871;SDS011;52653;50.080;21.992;2024-02-26T12:15:37;8.30;;;5.10;;
65871;SDS011;52653;50.080;21.992;2024-02-26T12:18:12;11.70;;;4.90;;
65871;SDS011;52653;50.080;21.992;2024-02-26T12:20:58;8.50;;;4.60;;
65871;SDS011;52653;50.080;21.992;2024-02-26T12:23:31;9.70;;;4.70;;
65871;SDS011;52653;50.080;21.992;2024-02-26T12:26:04;7.70;;;4.60;;
65871;SDS011;52653;50.080;21.992;2024-02-26T12:28:39;8.90;;;5.20;;
65871;SDS011;52653;50.080;21.992;2024-02-26T12:31:13;9.00;;;5.00;;
65871;SDS011;52653;50.080;21.992;2024-02-26T12:33:47;7.90;;;4.80;;
65871;SDS011;52653;50.080;21.992;2024-02-26T12:36:20;8.90;;;4.60;;
65871;SDS011;52653;50.080;21.992;2024-02-26T12:38:57;10.20;;;5.30;;
65871;SDS011;52653;50.080;21.992;2024-02-26T12:41:30;7.90;;;4.60;;
65871;SDS011;52653;50.080;21.992;2024-02-26T12:44:03;8.00;;;5.20;;
65871;SDS011;52653;50.080;21.992;2024-02-26T12:46:36;9.40;;;4.20;;
65871;SDS011;52653;50.080;21.992;2024-02-26T12:49:08;9.00;;;4.30;;
65871;SDS011;52653;50.080;21.992;2024-02-26T12:51:45;10.10;;;4.30;;
65871;SDS011;52653;50.080;21.992;2024-02-26T12:54:17;7.80;;;4.50;;
65871;SDS011;52653;50.080;21.992;2024-02-26T12:56:50;8.70;;;4.30;;
65871;SDS011;52653;50.080;21.992;2024-02-26T12:59:22;7.00;;;4.00;;
65871;SDS011;52653;50.080;21.992;2024-02-26T13:01:55;7.40;;;4.00;;
65871;SDS011;52653;50.080;21.992;2024-02-26T13:04:29;7.50;;;3.90;;
65871;SDS011;52653;50.080;21.992;2024-02-26T13:07:04;8.20;;;4.30;;
65871;SDS011;52653;50.080;21.992;2024-02-26T13:09:36;6.50;;;4.00;;
65871;SDS011;52653;50.080;21.992;2024-02-26T13:12:10;8.50;;;4.30;;
65871;SDS011;52653;50.080;21.992;2024-02-26T13:14:45;8.30;;;4.00;;
65871;SDS011;52653;50.080;21.992;2024-02-26T13:17:22;9.10;;;4.10;;
65871;SDS011;52653;50.080;21.992;2024-02-26T13:19:54;7.30;;;4.20;;
65871;SDS011;52653;50.080;21.992;2024-02-26T13:22:27;10.20;;;4.50;;
65871;SDS011;52653;50.080;21.992;2024-02-26T13:25:02;7.30;;;4.50;;
65871;SDS011;52653;50.080;21.992;2024-02-26T13:27:38;7.20;;;4.30;;
65871;SDS011;52653;50.080;21.992;2024-02-26T13:30:11;7.80;;;4.50;;
65871;SDS011;52653;50.080;21.992;2024-02-26T13:32:44;9.50;;;4.00;;
65871;SDS011;52653;50.080;21.992;2024-02-26T13:35:16;7.20;;;4.20;;
65871;SDS011;52653;50.080;21.992;2024-02-26T13:37:49;7.30;;;4.00;;
65871;SDS011;52653;50.080;21.992;2024-02-26T13:40:21;7.50;;;4.10;;
65871;SDS011;52653;50.080;21.992;2024-02-26T13:42:53;8.10;;;4.40;;
65871;SDS011;52653;50.080;21.992;2024-02-26T13:45:26;8.40;;;4.40;;
65871;SDS011;52653;50.080;21.992;2024-02-26T13:48:06;6.70;;;4.20;;
65871;SDS011;52653;50.080;21.992;2024-02-26T13:50:41;10.80;;;4.50;;
65871;SDS011;52653;50.080;21.992;2024-02-26T13:53:17;9.60;;;4.40;;
65871;SDS011;52653;50.080;21.992;2024-02-26T13:55:53;8.00;;;4.50;;
65871;SDS011;52653;50.080;21.992;2024-02-26T13:58:26;10.80;;;4.90;;
65871;SDS011;52653;50.080;21.992;2024-02-26T14:00:59;8.60;;;5.00;;
65871;SDS011;52653;50.080;21.992;2024-02-26T14:03:33;9.60;;;4.90;;
65871;SDS011;52653;50.080;21.992;2024-02-26T14:06:05;7.50;;;4.20;;
65871;SDS011;52653;50.080;21.992;2024-02-26T14:08:38;9.80;;;4.60;;
65871;SDS011;52653;50.080;21.992;2024-02-26T14:11:10;9.80;;;4.60;;
65871;SDS011;52653;50.080;21.992;2024-02-26T14:13:43;9.80;;;4.60;;
65871;SDS011;52653;50.080;21.992;2024-02-26T14:16:16;8.50;;;4.60;;
65871;SDS011;52653;50.080;21.992;2024-02-26T14:18:49;9.00;;;4.90;;
65871;SDS011;52653;50.080;21.992;2024-02-26T14:21:22;8.50;;;4.60;;
65871;SDS011;52653;50.080;21.992;2024-02-26T14:23:54;11.80;;;5.20;;
65871;SDS011;52653;50.080;21.992;2024-02-26T14:26:26;8.60;;;5.00;;
65871;SDS011;52653;50.080;21.992;2024-02-26T14:28:59;8.60;;;4.90;;
65871;SDS011;52653;50.080;21.992;2024-02-26T14:31:31;8.40;;;4.60;;
65871;SDS011;52653;50.080;21.992;2024-02-26T14:34:03;7.90;;;5.00;;
65871;SDS011;52653;50.080;21.992;2024-02-26T14:36:36;10.90;;;5.00;;
65871;SDS011;52653;50.080;21.992;2024-02-26T14:39:08;10.10;;;5.30;;
65871;SDS011;52653;50.080;21.992;2024-02-26T14:41:42;9.80;;;4.90;;
65871;SDS011;52653;50.080;21.992;2024-02-26T14:44:15;11.80;;;5.60;;
65871;SDS011;52653;50.080;21.992;2024-02-26T14:46:47;8.90;;;5.20;;
65871;SDS011;52653;50.080;21.992;2024-02-26T14:49:19;10.80;;;5.90;;
65871;SDS011;52653;50.080;21.992;2024-02-26T14:51:54;12.00;;;6.30;;
65871;SDS011;52653;50.080;21.992;2024-02-26T14:54:26;10.70;;;6.10;;
65871;SDS011;52653;50.080;21.992;2024-02-26T14:57:02;9.60;;;5.80;;
65871;SDS011;52653;50.080;21.992;2024-02-26T14:59:35;11.20;;;6.40;;